Aberdeen, SD

10:40 AM CST on January 19, 2017 (GMT -0600)
Aberdeen Regional | | Change Station
Active Advisory: Dense Fog Advisory

Elev 1299 ft 45.45 °N, 98.42 °W | Updated 47 minutes ago

Mostly Cloudy
Mostly Cloudy
30 °F
Feels Like 20 °F
N
12
Wind Variable Wind from South

Today
High -- | Low -- °F
--% Chance of Precip.
Yesterday
High -- | Low -- °F
Precip. -- in
Pressure 29.65 in
Visibility 5.0 miles
Clouds Mostly Cloudy 300 ft
Windchill 20 °F
Dew Point 26 °F
Humidity 85%
Rainfall 0.00 in
Snow Depth Not available.
8:06 AM 5:22 PM
Waning Gibbous, 52% visible
METAR KABR 191553Z AUTO 19010KT 5SM BR BKN003 M01/M03 A2959 RMK AO2 SLP039 T10111033
Pressure 29.65 in
Visibility 5.0 miles
Clouds Mostly Cloudy 300 ft
Windchill 20 °F
Dew Point 26 °F
Humidity 85%
Rainfall 0.00 in
Snow Depth Not available.
8:06 AM 5:22 PM
Waning Gibbous, 52% visible
METAR KABR 191553Z AUTO 19010KT 5SM BR BKN003 M01/M03 A2959 RMK AO2 SLP039 T10111033

Get Your Daily Forecast Email!

Thanks for signing up!

Be on the lookout for a verification email in your inbox.

You'll start receiving the daily forecast at 8 AM.

×

10-Day Weather Forecast

Almanac

Astronomy

Jan. 19, 2017 Rise Set
Actual Time
Civil Twilight
Nautical Twilight
Astronomical Twilight
Moon
Length of Visible Light
Length of Day
Tomorrow will be .
, % of the Moon is Illuminated

Today's Extremes

State Highs State Lows

Community

WunderPhotos

Upload Photos

1,962,540 photos uploaded!

WunderBlog® & News

Nearby

Air Quality

  Air Quality AQ Index Pollutant
Not available.

Snow Depth

Station Depth Elevation

Earthquake Activity

City Distance Mag. Time & Date
Minimum magnitude displayed is 2.5.

Coastal Water Temperatures

Place Temperature

Stations

Nearby Weather Stations

Station Location Temp. Windchill Dew Point Humidity Wind Precip. Elev Updated Type
                   

Watches & Warnings

Dense Fog Advisory
Issued: 8:42 AM CST Jan. 19, 2017 – National Weather Service

... Dense fog advisory now in effect until noon CST today...

* visibility... 1/4 mile or less.

* Impacts... low visibility will result in difficult driving
conditions.

Precautionary/preparedness actions...

A dense fog advisory means visibilities will frequently be
reduced to less than one quarter mile. If driving... slow down...
use your headlights... and leave plenty of distance ahead of you.



Connelly